EZY145 EBCI-EGPH
Flight info
| Callsign | EZY145 |
|---|---|
| Flight time | 1h 16m |
| Altitude | 38000 |
| Route | CIV UY50 LUMEN L610 KOPUL DCT SABER DCT SIVDA DCT BETAX L613 HALIF UN590 ABEVI UN601 INPIP |
| Aircraft | A20N/M-SDE2E3FGHIRWXY/LB1 |
Departure
| Time | 2026-04-23 13:03 |
|---|---|
| Airport | Brussels South Charleroi Airport (EBCI) |
Arrival
| Time | 2026-04-23 14:19 |
|---|---|
| Airport | Edinburgh Airport (EGPH) |
| Time | Latitude | Longitude | Altitude | Speed | Heading |
|---|---|---|---|---|---|
| 2026-04-23 12:40 | 50.46017 | 4.46196 | 619 ft | 0 kts | 157° |
| 2026-04-23 12:54 | 50.46023 | 4.46192 | 631 ft | 2 kts | 156° |
| 2026-04-23 12:55 | 50.46038 | 4.46182 | 629 ft | 2 kts | 160° |
| 2026-04-23 12:55 | 50.46054 | 4.46174 | 627 ft | 2 kts | 164° |
| 2026-04-23 12:55 | 50.46070 | 4.46168 | 628 ft | 2 kts | 173° |
| 2026-04-23 12:55 | 50.46086 | 4.46169 | 625 ft | 2 kts | 214° |
| 2026-04-23 12:56 | 50.46094 | 4.46183 | 625 ft | 1 kts | 245° |
| 2026-04-23 12:56 | 50.46094 | 4.46184 | 624 ft | 0 kts | 245° |
| 2026-04-23 12:58 | 50.46089 | 4.46167 | 630 ft | 4 kts | 245° |
| 2026-04-23 12:58 | 50.46069 | 4.46089 | 626 ft | 11 kts | 250° |
| 2026-04-23 12:58 | 50.46049 | 4.45943 | 629 ft | 16 kts | 260° |
| 2026-04-23 12:59 | 50.46005 | 4.45764 | 626 ft | 19 kts | 245° |
| 2026-04-23 12:59 | 50.45946 | 4.45558 | 626 ft | 22 kts | 245° |
| 2026-04-23 12:59 | 50.45880 | 4.45326 | 626 ft | 24 kts | 246° |
| 2026-04-23 12:59 | 50.45807 | 4.45074 | 629 ft | 26 kts | 244° |
| 2026-04-23 13:00 | 50.45763 | 4.44927 | 632 ft | 14 kts | 246° |
| 2026-04-23 13:00 | 50.45718 | 4.44770 | 636 ft | 17 kts | 245° |
| 2026-04-23 13:00 | 50.45662 | 4.44583 | 630 ft | 20 kts | 245° |
| 2026-04-23 13:00 | 50.45601 | 4.44367 | 631 ft | 23 kts | 246° |
| 2026-04-23 13:01 | 50.45529 | 4.44126 | 637 ft | 26 kts | 245° |
| 2026-04-23 13:01 | 50.45474 | 4.43937 | 638 ft | 13 kts | 245° |
| 2026-04-23 13:01 | 50.45443 | 4.43791 | 638 ft | 15 kts | 273° |
| 2026-04-23 13:01 | 50.45505 | 4.43703 | 636 ft | 10 kts | 347° |
| 2026-04-23 13:02 | 50.45540 | 4.43750 | 639 ft | 0 kts | 63° |
| 2026-04-23 13:02 | 50.45540 | 4.43753 | 638 ft | 2 kts | 63° |
| 2026-04-23 13:02 | 50.45589 | 4.43916 | 635 ft | 47 kts | 66° |
| 2026-04-23 13:02 | 50.45822 | 4.44716 | 639 ft | 110 kts | 65° |
| 2026-04-23 13:03 | 50.46197 | 4.46011 | 796 ft | 139 kts | 65° |
| 2026-04-23 13:03 | 50.46591 | 4.47397 | 1461 ft | 137 kts | 62° |
| 2026-04-23 13:03 | 50.47064 | 4.48680 | 2148 ft | 138 kts | 50° |
| 2026-04-23 13:03 | 50.47755 | 4.49793 | 2706 ft | 153 kts | 43° |
| 2026-04-23 13:04 | 50.48573 | 4.51010 | 3227 ft | 170 kts | 45° |
| 2026-04-23 13:04 | 50.49438 | 4.52454 | 3750 ft | 195 kts | 50° |
| 2026-04-23 13:04 | 50.50363 | 4.54167 | 4398 ft | 217 kts | 52° |
| 2026-04-23 13:04 | 50.51357 | 4.56110 | 5135 ft | 240 kts | 52° |
| 2026-04-23 13:05 | 50.52425 | 4.58246 | 6020 ft | 254 kts | 53° |
| 2026-04-23 13:05 | 50.53624 | 4.60300 | 7128 ft | 259 kts | 39° |
| 2026-04-23 13:05 | 50.55234 | 4.61618 | 8150 ft | 267 kts | 17° |
| 2026-04-23 13:05 | 50.57109 | 4.61786 | 9215 ft | 277 kts | 352° |
| 2026-04-23 13:06 | 50.60289 | 4.58241 | 11022 ft | 308 kts | 302° |
| 2026-04-23 13:06 | 50.61038 | 4.54935 | 11439 ft | 337 kts | 279° |
| 2026-04-23 13:06 | 50.61024 | 4.51135 | 11999 ft | 355 kts | 264° |
| 2026-04-23 13:07 | 50.60674 | 4.47266 | 12950 ft | 359 kts | 262° |
| 2026-04-23 13:07 | 50.60316 | 4.43350 | 13922 ft | 362 kts | 263° |
| 2026-04-23 13:07 | 50.60028 | 4.39402 | 14832 ft | 366 kts | 264° |
| 2026-04-23 13:07 | 50.59799 | 4.35417 | 15591 ft | 371 kts | 265° |
| 2026-04-23 13:08 | 50.59600 | 4.31275 | 16351 ft | 378 kts | 265° |
| 2026-04-23 13:08 | 50.59420 | 4.27195 | 17291 ft | 377 kts | 265° |
| 2026-04-23 13:08 | 50.59240 | 4.23050 | 18124 ft | 381 kts | 265° |
| 2026-04-23 13:08 | 50.59056 | 4.18861 | 18912 ft | 385 kts | 264° |
| 2026-04-23 13:09 | 50.58866 | 4.14627 | 19588 ft | 390 kts | 264° |
| 2026-04-23 13:09 | 50.58671 | 4.10339 | 20235 ft | 395 kts | 264° |
| 2026-04-23 13:09 | 50.58471 | 4.06001 | 20948 ft | 398 kts | 264° |
| 2026-04-23 13:09 | 50.58267 | 4.01628 | 21617 ft | 403 kts | 264° |
| 2026-04-23 13:10 | 50.58059 | 3.97211 | 22277 ft | 408 kts | 264° |
| 2026-04-23 13:10 | 50.57989 | 3.92707 | 22896 ft | 415 kts | 274° |
| 2026-04-23 13:10 | 50.58627 | 3.88259 | 23508 ft | 421 kts | 290° |
| 2026-04-23 13:10 | 50.60000 | 3.84174 | 24126 ft | 426 kts | 306° |
| 2026-04-23 13:11 | 50.62016 | 3.80725 | 24627 ft | 431 kts | 321° |
| 2026-04-23 13:11 | 50.64537 | 3.78161 | 25114 ft | 434 kts | 336° |
| 2026-04-23 13:11 | 50.67377 | 3.76527 | 25611 ft | 436 kts | 345° |
| 2026-04-23 13:11 | 50.70278 | 3.75241 | 26097 ft | 441 kts | 346° |
| 2026-04-23 13:12 | 50.73232 | 3.73879 | 26577 ft | 445 kts | 345° |
| 2026-04-23 13:12 | 50.76205 | 3.72364 | 26947 ft | 453 kts | 343° |
| 2026-04-23 13:12 | 50.79197 | 3.70720 | 27425 ft | 457 kts | 342° |
| 2026-04-23 13:12 | 50.82200 | 3.69004 | 27876 ft | 461 kts | 342° |
| 2026-04-23 13:13 | 50.85225 | 3.67247 | 28342 ft | 464 kts | 341° |
| 2026-04-23 13:13 | 50.88266 | 3.65472 | 28762 ft | 468 kts | 342° |
| 2026-04-23 13:13 | 50.91335 | 3.63677 | 29164 ft | 472 kts | 342° |
| 2026-04-23 13:13 | 50.94414 | 3.61799 | 29560 ft | 476 kts | 340° |
| 2026-04-23 13:14 | 50.97498 | 3.59803 | 29936 ft | 480 kts | 340° |
| 2026-04-23 13:14 | 51.00594 | 3.57775 | 30337 ft | 483 kts | 340° |
| 2026-04-23 13:14 | 51.03721 | 3.55733 | 30685 ft | 487 kts | 340° |
| 2026-04-23 13:14 | 51.06866 | 3.53690 | 31035 ft | 489 kts | 340° |
| 2026-04-23 13:15 | 51.10028 | 3.51642 | 31409 ft | 492 kts | 340° |
| 2026-04-23 13:15 | 51.13205 | 3.49586 | 31809 ft | 494 kts | 340° |
| 2026-04-23 13:15 | 51.16384 | 3.47527 | 32274 ft | 493 kts | 340° |
| 2026-04-23 13:15 | 51.19561 | 3.45454 | 32743 ft | 493 kts | 338° |
| 2026-04-23 13:16 | 51.22560 | 3.42797 | 33175 ft | 495 kts | 326° |
| 2026-04-23 13:16 | 51.25150 | 3.39313 | 33610 ft | 495 kts | 314° |
| 2026-04-23 13:16 | 51.27307 | 3.35021 | 34034 ft | 494 kts | 301° |
| 2026-04-23 13:16 | 51.28888 | 3.30179 | 34431 ft | 491 kts | 289° |
| 2026-04-23 13:17 | 51.29833 | 3.24978 | 34810 ft | 484 kts | 276° |
| 2026-04-23 13:17 | 51.30281 | 3.19680 | 35237 ft | 480 kts | 272° |
| 2026-04-23 13:17 | 51.30659 | 3.14384 | 35632 ft | 479 kts | 274° |
| 2026-04-23 13:17 | 51.31126 | 3.09119 | 36021 ft | 478 kts | 275° |
| 2026-04-23 13:18 | 51.31686 | 3.03882 | 36400 ft | 477 kts | 277° |
| 2026-04-23 13:18 | 51.32303 | 2.98680 | 36757 ft | 476 kts | 278° |
| 2026-04-23 13:18 | 51.32944 | 2.93503 | 37103 ft | 475 kts | 278° |
| 2026-04-23 13:18 | 51.33593 | 2.88327 | 37450 ft | 473 kts | 278° |
| 2026-04-23 13:19 | 51.34238 | 2.83170 | 37792 ft | 472 kts | 278° |
| 2026-04-23 13:19 | 51.34878 | 2.78031 | 38117 ft | 471 kts | 278° |
| 2026-04-23 13:19 | 51.35514 | 2.72892 | 38401 ft | 470 kts | 278° |
| 2026-04-23 13:20 | 51.36770 | 2.62723 | 38451 ft | 467 kts | 278° |
| 2026-04-23 13:20 | 51.38023 | 2.52506 | 38451 ft | 468 kts | 278° |
| 2026-04-23 13:21 | 51.39265 | 2.42286 | 38450 ft | 467 kts | 278° |
| 2026-04-23 13:21 | 51.40498 | 2.32052 | 38451 ft | 467 kts | 279° |
| 2026-04-23 13:22 | 51.41726 | 2.21837 | 38457 ft | 467 kts | 279° |
| 2026-04-23 13:22 | 51.42977 | 2.11622 | 38454 ft | 467 kts | 279° |
| 2026-04-23 13:23 | 51.44218 | 2.01413 | 38453 ft | 466 kts | 279° |
| 2026-04-23 13:23 | 51.45429 | 1.91199 | 38457 ft | 466 kts | 278° |
| 2026-04-23 13:24 | 51.46607 | 1.81030 | 38466 ft | 461 kts | 279° |
| 2026-04-23 13:24 | 51.47779 | 1.70907 | 38458 ft | 462 kts | 279° |
| 2026-04-23 13:25 | 51.48947 | 1.60757 | 38463 ft | 462 kts | 278° |
| 2026-04-23 13:25 | 51.50096 | 1.50658 | 38461 ft | 462 kts | 278° |
| 2026-04-23 13:26 | 51.51240 | 1.40493 | 38475 ft | 462 kts | 279° |
| 2026-04-23 13:26 | 51.52377 | 1.30333 | 38453 ft | 462 kts | 279° |
| 2026-04-23 13:27 | 51.53801 | 1.20272 | 38458 ft | 463 kts | 290° |
| 2026-04-23 13:27 | 51.55196 | 1.15598 | 38477 ft | 463 kts | 301° |
| 2026-04-23 13:27 | 51.57046 | 1.11449 | 38469 ft | 462 kts | 311° |
| 2026-04-23 13:27 | 51.59333 | 1.07840 | 38452 ft | 462 kts | 322° |
| 2026-04-23 13:28 | 51.61923 | 1.04773 | 38449 ft | 462 kts | 325° |
| 2026-04-23 13:28 | 51.67150 | 0.98727 | 38452 ft | 462 kts | 324° |
| 2026-04-23 13:29 | 51.72242 | 0.92385 | 38483 ft | 462 kts | 319° |
| 2026-04-23 13:29 | 51.77091 | 0.85643 | 38479 ft | 459 kts | 320° |
| 2026-04-23 13:30 | 51.81929 | 0.78943 | 38469 ft | 463 kts | 320° |
| 2026-04-23 13:30 | 51.86793 | 0.72171 | 38466 ft | 460 kts | 320° |
| 2026-04-23 13:31 | 51.91643 | 0.65390 | 38452 ft | 461 kts | 319° |
| 2026-04-23 13:31 | 51.96488 | 0.58596 | 38455 ft | 460 kts | 319° |
| 2026-04-23 13:32 | 52.01330 | 0.51786 | 38459 ft | 461 kts | 319° |
| 2026-04-23 13:32 | 52.06173 | 0.44955 | 38456 ft | 460 kts | 319° |
| 2026-04-23 13:33 | 52.11011 | 0.38111 | 38457 ft | 461 kts | 319° |
| 2026-04-23 13:33 | 52.15830 | 0.31273 | 38455 ft | 459 kts | 319° |
| 2026-04-23 13:34 | 52.20595 | 0.24492 | 38456 ft | 456 kts | 319° |
| 2026-04-23 13:34 | 52.25411 | 0.17618 | 38459 ft | 460 kts | 319° |
| 2026-04-23 13:35 | 52.30235 | 0.10711 | 38451 ft | 463 kts | 319° |
| 2026-04-23 13:35 | 52.35053 | 0.03793 | 38455 ft | 460 kts | 319° |
| 2026-04-23 13:36 | 52.39902 | -0.03066 | 38459 ft | 459 kts | 320° |
| 2026-04-23 13:36 | 52.44728 | -0.09794 | 38467 ft | 457 kts | 320° |
| 2026-04-23 13:37 | 52.49564 | -0.16576 | 38473 ft | 460 kts | 320° |
| 2026-04-23 13:37 | 52.54384 | -0.23370 | 38472 ft | 456 kts | 319° |
| 2026-04-23 13:38 | 52.59215 | -0.30203 | 38483 ft | 456 kts | 319° |
| 2026-04-23 13:38 | 52.64021 | -0.37024 | 38484 ft | 459 kts | 319° |
| 2026-04-23 13:39 | 52.68859 | -0.43908 | 38480 ft | 459 kts | 319° |
| 2026-04-23 13:39 | 52.73710 | -0.50834 | 38491 ft | 460 kts | 319° |
| 2026-04-23 13:40 | 52.78492 | -0.57679 | 38498 ft | 459 kts | 319° |
| 2026-04-23 13:40 | 52.83298 | -0.64580 | 38509 ft | 457 kts | 319° |
| 2026-04-23 13:41 | 52.88118 | -0.71523 | 38507 ft | 458 kts | 319° |
| 2026-04-23 13:41 | 52.92134 | -0.77325 | 38504 ft | 461 kts | 319° |
| 2026-04-23 13:42 | 52.96947 | -0.84297 | 38502 ft | 458 kts | 319° |
| 2026-04-23 13:42 | 53.01958 | -0.90842 | 38495 ft | 457 kts | 327° |
| 2026-04-23 13:43 | 53.07505 | -0.96074 | 38488 ft | 459 kts | 331° |
| 2026-04-23 13:43 | 53.13082 | -1.01245 | 38485 ft | 458 kts | 331° |
| 2026-04-23 13:44 | 53.18609 | -1.06373 | 38485 ft | 452 kts | 331° |
| 2026-04-23 13:44 | 53.24125 | -1.11491 | 38488 ft | 454 kts | 331° |
| 2026-04-23 13:45 | 53.29644 | -1.16624 | 38485 ft | 454 kts | 331° |
| 2026-04-23 13:45 | 53.35151 | -1.21762 | 38497 ft | 457 kts | 331° |
| 2026-04-23 13:46 | 53.40688 | -1.26944 | 38488 ft | 454 kts | 331° |
| 2026-04-23 13:46 | 53.46207 | -1.32130 | 38495 ft | 456 kts | 331° |
| 2026-04-23 13:47 | 53.51749 | -1.37361 | 38496 ft | 455 kts | 331° |
| 2026-04-23 13:47 | 53.57247 | -1.42565 | 38497 ft | 455 kts | 331° |
| 2026-04-23 13:48 | 53.62778 | -1.47816 | 38502 ft | 456 kts | 330° |
| 2026-04-23 13:48 | 53.68284 | -1.53057 | 38506 ft | 452 kts | 330° |
| 2026-04-23 13:49 | 53.73780 | -1.58425 | 38496 ft | 449 kts | 327° |
| 2026-04-23 13:49 | 53.78793 | -1.64407 | 38509 ft | 444 kts | 325° |
| 2026-04-23 13:50 | 53.83839 | -1.70420 | 38508 ft | 446 kts | 325° |
| 2026-04-23 13:50 | 53.88914 | -1.76502 | 38509 ft | 446 kts | 325° |
| 2026-04-23 13:51 | 53.93983 | -1.82609 | 38510 ft | 446 kts | 324° |
| 2026-04-23 13:51 | 53.99037 | -1.88718 | 38500 ft | 446 kts | 324° |
| 2026-04-23 13:52 | 54.04073 | -1.94824 | 38499 ft | 449 kts | 324° |
| 2026-04-23 13:52 | 54.09155 | -2.01005 | 38497 ft | 448 kts | 324° |
| 2026-04-23 13:53 | 54.14216 | -2.07179 | 38500 ft | 447 kts | 324° |
| 2026-04-23 13:53 | 54.19277 | -2.13373 | 38489 ft | 444 kts | 325° |
| 2026-04-23 13:53 | 54.21723 | -2.16377 | 38486 ft | 433 kts | 325° |
| 2026-04-23 13:54 | 54.24169 | -2.19383 | 38489 ft | 435 kts | 324° |
| 2026-04-23 13:54 | 54.29140 | -2.25501 | 38490 ft | 441 kts | 324° |
| 2026-04-23 13:55 | 54.34100 | -2.31628 | 38493 ft | 438 kts | 324° |
| 2026-04-23 13:55 | 54.39049 | -2.37757 | 38482 ft | 439 kts | 324° |
| 2026-04-23 13:56 | 54.44004 | -2.43911 | 38438 ft | 440 kts | 324° |
| 2026-04-23 13:56 | 54.46449 | -2.46957 | 38098 ft | 440 kts | 324° |
| 2026-04-23 13:56 | 54.48934 | -2.50056 | 37424 ft | 441 kts | 324° |
| 2026-04-23 13:56 | 54.51429 | -2.53173 | 36565 ft | 444 kts | 324° |
| 2026-04-23 13:57 | 54.53937 | -2.56309 | 35362 ft | 449 kts | 324° |
| 2026-04-23 13:57 | 54.56475 | -2.59488 | 34550 ft | 451 kts | 324° |
| 2026-04-23 13:57 | 54.59014 | -2.62676 | 33706 ft | 450 kts | 324° |
| 2026-04-23 13:57 | 54.61546 | -2.65858 | 32884 ft | 448 kts | 324° |
| 2026-04-23 13:58 | 54.64063 | -2.69027 | 32055 ft | 447 kts | 324° |
| 2026-04-23 13:58 | 54.66575 | -2.72192 | 31218 ft | 447 kts | 324° |
| 2026-04-23 13:58 | 54.69094 | -2.75336 | 30423 ft | 445 kts | 327° |
| 2026-04-23 13:58 | 54.71742 | -2.78013 | 29873 ft | 436 kts | 334° |
| 2026-04-23 13:59 | 54.74484 | -2.80115 | 29308 ft | 428 kts | 338° |
| 2026-04-23 13:59 | 54.77186 | -2.82043 | 28717 ft | 422 kts | 338° |
| 2026-04-23 13:59 | 54.79876 | -2.83986 | 28142 ft | 416 kts | 338° |
| 2026-04-23 13:59 | 54.82531 | -2.85906 | 27568 ft | 410 kts | 338° |
| 2026-04-23 14:00 | 54.84302 | -2.87186 | 27189 ft | 407 kts | 338° |
| 2026-04-23 14:00 | 54.87746 | -2.89673 | 26598 ft | 404 kts | 338° |
| 2026-04-23 14:00 | 54.90387 | -2.91581 | 26440 ft | 417 kts | 338° |
| 2026-04-23 14:00 | 54.93063 | -2.93515 | 26237 ft | 416 kts | 338° |
| 2026-04-23 14:01 | 54.95753 | -2.95461 | 25555 ft | 420 kts | 338° |
| 2026-04-23 14:01 | 54.98471 | -2.97431 | 24536 ft | 428 kts | 337° |
| 2026-04-23 14:01 | 55.01254 | -2.99450 | 23491 ft | 434 kts | 337° |
| 2026-04-23 14:01 | 55.04020 | -3.01460 | 22859 ft | 427 kts | 337° |
| 2026-04-23 14:02 | 55.06737 | -3.03438 | 22277 ft | 419 kts | 337° |
| 2026-04-23 14:02 | 55.09359 | -3.05347 | 21968 ft | 396 kts | 337° |
| 2026-04-23 14:02 | 55.11832 | -3.07150 | 21733 ft | 374 kts | 337° |
| 2026-04-23 14:02 | 55.14187 | -3.08870 | 21140 ft | 364 kts | 337° |
| 2026-04-23 14:03 | 55.16550 | -3.10600 | 19969 ft | 372 kts | 337° |
| 2026-04-23 14:03 | 55.18949 | -3.12359 | 19061 ft | 373 kts | 337° |
| 2026-04-23 14:03 | 55.21312 | -3.14093 | 18109 ft | 372 kts | 336° |
| 2026-04-23 14:03 | 55.23711 | -3.15854 | 17070 ft | 373 kts | 336° |
| 2026-04-23 14:04 | 55.26083 | -3.17599 | 16282 ft | 367 kts | 336° |
| 2026-04-23 14:04 | 55.28425 | -3.19322 | 15445 ft | 363 kts | 336° |
| 2026-04-23 14:04 | 55.30742 | -3.21029 | 14643 ft | 358 kts | 336° |
| 2026-04-23 14:04 | 55.33026 | -3.22717 | 13809 ft | 354 kts | 336° |
| 2026-04-23 14:05 | 55.35286 | -3.24390 | 12959 ft | 350 kts | 336° |
| 2026-04-23 14:05 | 55.37514 | -3.26041 | 12133 ft | 346 kts | 336° |
| 2026-04-23 14:05 | 55.39718 | -3.27675 | 11319 ft | 342 kts | 336° |
| 2026-04-23 14:05 | 55.41875 | -3.29277 | 10956 ft | 326 kts | 336° |
| 2026-04-23 14:06 | 55.43901 | -3.30781 | 10763 ft | 306 kts | 336° |
| 2026-04-23 14:06 | 55.45799 | -3.32191 | 10594 ft | 286 kts | 335° |
| 2026-04-23 14:06 | 55.47579 | -3.33517 | 10435 ft | 268 kts | 335° |
| 2026-04-23 14:06 | 55.49242 | -3.34776 | 10241 ft | 254 kts | 332° |
| 2026-04-23 14:07 | 55.50697 | -3.36372 | 9834 ft | 247 kts | 319° |
| 2026-04-23 14:07 | 55.53285 | -3.40267 | 8946 ft | 242 kts | 317° |
| 2026-04-23 14:07 | 55.54573 | -3.42181 | 8514 ft | 241 kts | 317° |
| 2026-04-23 14:08 | 55.55855 | -3.44082 | 8090 ft | 239 kts | 317° |
| 2026-04-23 14:08 | 55.57124 | -3.45962 | 7668 ft | 237 kts | 317° |
| 2026-04-23 14:08 | 55.58387 | -3.47840 | 7245 ft | 236 kts | 317° |
| 2026-04-23 14:08 | 55.59639 | -3.49702 | 6855 ft | 234 kts | 317° |
| 2026-04-23 14:09 | 55.60889 | -3.51564 | 6475 ft | 236 kts | 317° |
| 2026-04-23 14:09 | 55.62159 | -3.53458 | 6083 ft | 241 kts | 317° |
| 2026-04-23 14:09 | 55.63419 | -3.55336 | 5967 ft | 232 kts | 317° |
| 2026-04-23 14:09 | 55.64659 | -3.57182 | 5960 ft | 236 kts | 317° |
| 2026-04-23 14:10 | 55.65912 | -3.59052 | 5918 ft | 233 kts | 317° |
| 2026-04-23 14:10 | 55.67129 | -3.60872 | 5709 ft | 232 kts | 317° |
| 2026-04-23 14:10 | 55.68361 | -3.62718 | 5440 ft | 232 kts | 317° |
| 2026-04-23 14:10 | 55.69593 | -3.64566 | 5182 ft | 231 kts | 317° |
| 2026-04-23 14:11 | 55.70820 | -3.66409 | 4923 ft | 231 kts | 317° |
| 2026-04-23 14:11 | 55.72044 | -3.68246 | 4664 ft | 230 kts | 317° |
| 2026-04-23 14:11 | 55.73265 | -3.70083 | 4411 ft | 230 kts | 317° |
| 2026-04-23 14:11 | 55.74477 | -3.71910 | 4180 ft | 228 kts | 317° |
| 2026-04-23 14:12 | 55.75682 | -3.73726 | 3986 ft | 225 kts | 317° |
| 2026-04-23 14:12 | 55.76882 | -3.75532 | 3967 ft | 228 kts | 319° |
| 2026-04-23 14:12 | 55.78293 | -3.76782 | 3965 ft | 230 kts | 349° |
| 2026-04-23 14:12 | 55.79881 | -3.76637 | 3961 ft | 230 kts | 17° |
| 2026-04-23 14:13 | 55.81301 | -3.75412 | 3968 ft | 223 kts | 36° |
| 2026-04-23 14:13 | 55.82420 | -3.73692 | 3975 ft | 208 kts | 50° |
| 2026-04-23 14:13 | 55.83273 | -3.71711 | 3970 ft | 194 kts | 59° |
| 2026-04-23 14:13 | 55.83994 | -3.69680 | 3986 ft | 197 kts | 62° |
| 2026-04-23 14:14 | 55.84699 | -3.67602 | 3915 ft | 195 kts | 62° |
| 2026-04-23 14:14 | 55.85396 | -3.65548 | 3665 ft | 193 kts | 62° |
| 2026-04-23 14:14 | 55.86093 | -3.63504 | 3418 ft | 194 kts | 62° |
| 2026-04-23 14:14 | 55.86794 | -3.61447 | 3198 ft | 192 kts | 62° |
| 2026-04-23 14:15 | 55.87477 | -3.59430 | 2917 ft | 189 kts | 61° |
| 2026-04-23 14:15 | 55.88157 | -3.57434 | 2633 ft | 187 kts | 61° |
| 2026-04-23 14:15 | 55.88805 | -3.55530 | 2385 ft | 171 kts | 61° |
| 2026-04-23 14:15 | 55.89381 | -3.53837 | 2173 ft | 150 kts | 61° |
| 2026-04-23 14:16 | 55.89890 | -3.52332 | 1957 ft | 135 kts | 61° |
| 2026-04-23 14:16 | 55.90356 | -3.50959 | 1781 ft | 124 kts | 61° |
| 2026-04-23 14:16 | 55.90800 | -3.49642 | 1617 ft | 126 kts | 60° |
| 2026-04-23 14:16 | 55.91245 | -3.48336 | 1451 ft | 121 kts | 61° |
| 2026-04-23 14:17 | 55.91680 | -3.47050 | 1294 ft | 121 kts | 61° |
| 2026-04-23 14:17 | 55.92107 | -3.45792 | 1124 ft | 120 kts | 60° |
| 2026-04-23 14:17 | 55.92539 | -3.44514 | 953 ft | 117 kts | 60° |
| 2026-04-23 14:17 | 55.92955 | -3.43289 | 795 ft | 118 kts | 60° |
| 2026-04-23 14:18 | 55.93367 | -3.42070 | 639 ft | 112 kts | 60° |
| 2026-04-23 14:18 | 55.93773 | -3.40869 | 476 ft | 117 kts | 60° |
| 2026-04-23 14:18 | 55.94182 | -3.39661 | 273 ft | 110 kts | 60° |
| 2026-04-23 14:18 | 55.94590 | -3.38445 | 124 ft | 115 kts | 60° |
| 2026-04-23 14:19 | 55.94920 | -3.37480 | 107 ft | 52 kts | 60° |
| 2026-04-23 14:19 | 55.95053 | -3.37084 | 107 ft | 34 kts | 58° |
| 2026-04-23 14:19 | 55.95174 | -3.36729 | 109 ft | 34 kts | 58° |
| 2026-04-23 14:19 | 55.95255 | -3.36468 | 102 ft | 14 kts | 81° |
| 2026-04-23 14:20 | 55.95194 | -3.36352 | 102 ft | 14 kts | 152° |
| 2026-04-23 14:20 | 55.95174 | -3.36331 | 103 ft | 0 kts | 149° |
| 2026-04-23 14:20 | 55.95173 | -3.36331 | 103 ft | 1 kts | 149° |
| 2026-04-23 14:21 | 55.95157 | -3.36316 | 103 ft | 5 kts | 161° |
| 2026-04-23 14:21 | 55.95113 | -3.36349 | 105 ft | 9 kts | 229° |
| 2026-04-23 14:21 | 55.95069 | -3.36394 | 106 ft | 0 kts | 183° |
| 2026-04-23 14:21 | 55.95056 | -3.36389 | 107 ft | 5 kts | 170° |
| 2026-04-23 14:22 | 55.95012 | -3.36419 | 107 ft | 10 kts | 232° |
| 2026-04-23 14:22 | 55.94970 | -3.36474 | 106 ft | 8 kts | 180° |
| 2026-04-23 14:22 | 55.94937 | -3.36446 | 106 ft | 0 kts | 149° |
| 2026-04-23 14:22 | 55.94922 | -3.36431 | 105 ft | 5 kts | 150° |
| 2026-04-23 14:23 | 55.94915 | -3.36423 | 106 ft | 0 kts | 149° |